createdAt,value
2019-02-18T00:00:54.622Z,99204.48
2019-02-18T00:01:58.686Z,99202.83
2019-02-18T00:03:00.331Z,99204.97
2019-02-18T00:04:02.165Z,99205.49
2019-02-18T00:05:04.311Z,99209.50
2019-02-18T00:06:06.021Z,99209.50
2019-02-18T00:07:14.456Z,99208.86
2019-02-18T00:08:11.479Z,99204.85
2019-02-18T00:09:12.993Z,99204.85
2019-02-18T00:10:14.586Z,99204.33
2019-02-18T00:11:16.613Z,99202.19
2019-02-18T00:12:18.080Z,99202.19
2019-02-18T00:13:19.677Z,99200.00
2019-02-18T00:14:21.527Z,99203.16
2019-02-18T00:15:23.416Z,99203.16
2019-02-18T00:16:25.211Z,99203.16
2019-02-18T00:17:26.788Z,99198.84
2019-02-18T00:18:28.266Z,99198.84
2019-02-18T00:19:29.921Z,99202.36
2019-02-18T00:20:31.701Z,99202.36
2019-02-18T00:21:33.074Z,99195.69
2019-02-18T00:22:34.684Z,99194.67
2019-02-18T00:23:37.852Z,99189.02
2019-02-18T00:24:39.505Z,99190.34
2019-02-18T00:25:41.269Z,99191.16
2019-02-18T00:26:42.958Z,99191.16
2019-02-18T00:27:44.832Z,99190.66
2019-02-18T00:28:47.781Z,99190.66
2019-02-18T00:29:49.182Z,99183.99
2019-02-18T00:30:50.666Z,99181.33
2019-02-18T00:31:52.111Z,99185.48
2019-02-18T00:32:53.499Z,99186.28
2019-02-18T00:33:55.038Z,99186.81
2019-02-18T00:34:56.561Z,99186.81
2019-02-18T00:35:58.032Z,99177.61
2019-02-18T00:36:59.502Z,99177.61
2019-02-18T00:38:00.994Z,99181.79
2019-02-18T00:39:04.193Z,99181.47
2019-02-18T00:40:08.852Z,99177.96
2019-02-18T00:41:10.500Z,99179.50
2019-02-18T00:42:11.958Z,99174.16
2019-02-18T00:43:13.561Z,99174.16
2019-02-18T00:44:15.096Z,99180.16
2019-02-18T00:45:16.769Z,99177.49
2019-02-18T00:46:18.222Z,99177.49
2019-02-18T00:47:19.703Z,99175.84
2019-02-18T00:48:21.102Z,99176.33
2019-02-18T00:49:22.608Z,99176.16
2019-02-18T00:50:24.281Z,99173.00
2019-02-18T00:51:25.858Z,99172.47
2019-02-18T00:52:27.359Z,99171.81
2019-02-18T00:53:28.911Z,99170.80
2019-02-18T00:54:30.312Z,99172.13
2019-02-18T00:55:31.862Z,99168.13
2019-02-18T00:56:33.312Z,99164.81
2019-02-18T00:57:36.718Z,99169.80
2019-02-18T00:58:38.309Z,99163.66
2019-02-18T00:59:39.892Z,99163.66
2019-02-18T01:00:41.573Z,99165.66
2019-02-18T01:01:42.909Z,99165.66
2019-02-18T01:02:45.194Z,99159.51
2019-02-18T01:03:46.777Z,99153.85
2019-02-18T01:04:48.359Z,99155.19
2019-02-18T01:05:50.111Z,99153.01
2019-02-18T01:06:51.623Z,99153.01
2019-02-18T01:07:53.089Z,99154.34
2019-02-18T01:08:56.745Z,99150.83
2019-02-18T01:09:58.010Z,99155.67
2019-02-18T01:10:59.376Z,99149.50
2019-02-18T01:12:00.796Z,99150.83
2019-02-18T01:13:02.503Z,99151.84
2019-02-18T01:14:04.231Z,99151.84
2019-02-18T01:15:08.726Z,99151.35
2019-02-18T01:16:10.385Z,99149.17
2019-02-18T01:17:11.945Z,99145.17
2019-02-18T01:18:14.161Z,99143.84
2019-02-18T01:19:16.685Z,99145.17
2019-02-18T01:20:18.127Z,99139.84
2019-02-18T01:21:19.533Z,99139.03
2019-02-18T01:22:21.108Z,99138.02
2019-02-18T01:23:22.595Z,99135.52
2019-02-18T01:24:24.194Z,99136.36
2019-02-18T01:25:25.591Z,99136.36
2019-02-18T01:26:26.940Z,99132.84
2019-02-18T01:27:28.290Z,99132.67
2019-02-18T01:28:29.867Z,99133.48
2019-02-18T01:29:31.558Z,99134.01
2019-02-18T01:30:33.234Z,99134.01
2019-02-18T01:31:34.867Z,99130.33
2019-02-18T01:32:36.376Z,99122.81
2019-02-18T01:33:37.795Z,99129.83
2019-02-18T01:34:39.454Z,99122.32
2019-02-18T01:35:41.163Z,99119.16
2019-02-18T01:36:43.804Z,99116.81
2019-02-18T01:37:46.354Z,99110.17
2019-02-18T01:38:48.014Z,99110.17
2019-02-18T01:39:49.507Z,99112.14
2019-02-18T01:40:50.995Z,99108.83
2019-02-18T01:41:54.150Z,99108.83
2019-02-18T01:42:55.962Z,99108.52
2019-02-18T01:43:57.577Z,99107.88
2019-02-18T01:44:59.402Z,99103.52
2019-02-18T01:46:00.831Z,99110.72
2019-02-18T01:47:02.714Z,99106.89
2019-02-18T01:48:04.501Z,99106.89
2019-02-18T01:49:06.015Z,99107.38
2019-02-18T01:50:10.144Z,99113.23
2019-02-18T01:51:11.685Z,99106.05
2019-02-18T01:52:12.935Z,99109.41
2019-02-18T01:53:14.455Z,99107.91
2019-02-18T01:54:15.877Z,99104.07
2019-02-18T01:55:18.853Z,99101.89
2019-02-18T01:56:20.303Z,99103.58
2019-02-18T01:57:21.775Z,99102.42
2019-02-18T01:58:23.409Z,99102.42
2019-02-18T01:59:24.797Z,99100.91
2019-02-18T02:00:26.483Z,99097.89
2019-02-18T02:01:28.042Z,99097.89
2019-02-18T02:02:30.507Z,99096.24
2019-02-18T02:03:32.430Z,99090.91
2019-02-18T02:04:33.841Z,99091.75
2019-02-18T02:05:35.661Z,99091.75
2019-02-18T02:06:37.465Z,99094.56
2019-02-18T02:07:39.107Z,99098.71
2019-02-18T02:08:40.689Z,99100.68
2019-02-18T02:09:41.956Z,99100.68
2019-02-18T02:10:43.803Z,99099.49
2019-02-18T02:11:45.346Z,99099.49
2019-02-18T02:12:46.924Z,99096.83
2019-02-18T02:13:48.310Z,99094.16
2019-02-18T02:14:49.661Z,99090.33
2019-02-18T02:15:51.513Z,99092.19
2019-02-18T02:16:53.488Z,99092.19
2019-02-18T02:17:55.074Z,99094.85
2019-02-18T02:18:56.552Z,99094.85
2019-02-18T02:19:58.201Z,99090.85
2019-02-18T02:20:59.874Z,99090.85
2019-02-18T02:22:01.493Z,99090.85
2019-02-18T02:23:02.897Z,99084.84
2019-02-18T02:24:04.474Z,99077.19
2019-02-18T02:25:06.356Z,99076.17
2019-02-18T02:26:07.806Z,99079.16
2019-02-18T02:27:09.374Z,99077.34
2019-02-18T02:28:11.624Z,99077.34
2019-02-18T02:29:13.198Z,99074.67
2019-02-18T02:30:15.233Z,99077.13
2019-02-18T02:31:16.958Z,99077.83
2019-02-18T02:32:18.388Z,99077.83
2019-02-18T02:33:20.210Z,99076.66
2019-02-18T02:34:21.759Z,99076.84
2019-02-18T02:35:24.463Z,99076.84
2019-02-18T02:36:26.115Z,99081.05
2019-02-18T02:37:27.448Z,99074.88
2019-02-18T02:38:28.914Z,99081.05
2019-02-18T02:39:30.386Z,99077.53
2019-02-18T02:40:32.040Z,99077.53
2019-02-18T02:41:35.855Z,99076.38
2019-02-18T02:42:37.269Z,99078.55
2019-02-18T02:43:38.727Z,99071.22
2019-02-18T02:44:40.579Z,99063.56
2019-02-18T02:45:42.139Z,99064.37
2019-02-18T02:46:44.503Z,99066.23
2019-02-18T02:47:46.090Z,99066.23
2019-02-18T02:48:47.669Z,99067.04
2019-02-18T02:49:49.037Z,99067.04
2019-02-18T02:50:50.572Z,99063.70
2019-02-18T02:51:52.298Z,99063.70
2019-02-18T02:52:53.754Z,99065.84
2019-02-18T02:53:55.462Z,99064.83
2019-02-18T02:54:56.831Z,99064.83
2019-02-18T02:55:58.497Z,99065.19
2019-02-18T02:57:00.147Z,99064.98
2019-02-18T02:58:01.384Z,99056.66
2019-02-18T02:59:03.015Z,99068.48
2019-02-18T03:00:12.738Z,99064.80
2019-02-18T03:01:14.316Z,99064.80
2019-02-18T03:02:16.026Z,99063.47
2019-02-18T03:03:17.742Z,99063.47
2019-02-18T03:04:19.129Z,99058.13
2019-02-18T03:05:21.128Z,99062.98
2019-02-18T03:06:23.322Z,99062.98
2019-02-18T03:07:24.940Z,99066.14
2019-02-18T03:08:26.476Z,99060.80
2019-02-18T03:09:28.409Z,99060.80
2019-02-18T03:10:29.972Z,99069.44
2019-02-18T03:11:31.690Z,99065.13
2019-02-18T03:12:33.094Z,99067.80
2019-02-18T03:13:34.456Z,99067.80
2019-02-18T03:14:35.950Z,99071.80
2019-02-18T03:15:37.203Z,99071.80
2019-02-18T03:16:38.770Z,99073.13
2019-02-18T03:17:40.322Z,99074.78
2019-02-18T03:18:41.887Z,99074.29
2019-02-18T03:19:43.770Z,99075.12
2019-02-18T03:20:46.646Z,99075.12
2019-02-18T03:21:48.045Z,99079.13
2019-02-18T03:22:49.849Z,99079.13
2019-02-18T03:23:52.283Z,99082.61
2019-02-18T03:25:21.978Z,99084.47
2019-02-18T03:26:23.581Z,99082.30
2019-02-18T03:27:25.010Z,99085.45
2019-02-18T03:28:45.546Z,99082.47
2019-02-18T03:30:13.653Z,99085.66
2019-02-18T03:31:18.757Z,99085.34
2019-02-18T03:32:20.406Z,99084.50
2019-02-18T03:33:40.467Z,99092.19
2019-02-18T03:34:41.780Z,99092.19
2019-02-18T03:35:43.471Z,99090.70
2019-02-18T03:36:45.066Z,99090.70
2019-02-18T03:37:46.705Z,99090.19
2019-02-18T03:38:48.324Z,99088.84
2019-02-18T03:39:49.959Z,99088.84
2019-02-18T03:41:02.442Z,99089.69
2019-02-18T03:41:55.275Z,99087.20
2019-02-18T03:42:56.914Z,99087.20
2019-02-18T03:43:58.669Z,99084.20
2019-02-18T03:45:00.369Z,99084.20
2019-02-18T03:46:02.252Z,99081.39
2019-02-18T03:47:04.078Z,99081.39
2019-02-18T03:48:05.599Z,99085.72
2019-02-18T03:49:06.881Z,99084.91
2019-02-18T03:50:08.547Z,99086.56
2019-02-18T03:51:10.403Z,99080.06
2019-02-18T03:52:11.757Z,99083.89
2019-02-18T03:53:13.619Z,99083.89
2019-02-18T03:54:15.473Z,99086.56
2019-02-18T03:55:16.972Z,99085.23
2019-02-18T03:56:18.662Z,99090.23
2019-02-18T03:57:20.362Z,99087.22
2019-02-18T03:58:22.125Z,99077.56
2019-02-18T03:59:23.759Z,99077.56
2019-02-18T04:00:25.421Z,99082.59
2019-02-18T04:01:27.226Z,99085.25
2019-02-18T04:02:29.053Z,99085.25
2019-02-18T04:03:30.826Z,99077.77
2019-02-18T04:04:32.660Z,99085.57
2019-02-18T04:05:34.514Z,99084.55
2019-02-18T04:06:35.962Z,99075.22
2019-02-18T04:07:37.560Z,99083.37
2019-02-18T04:08:42.880Z,99071.19
2019-02-18T04:09:42.806Z,99075.50
2019-02-18T04:10:47.098Z,99076.84
2019-02-18T04:11:48.585Z,99080.84
2019-02-18T04:12:49.867Z,99078.37
2019-02-18T04:13:51.377Z,99079.36
2019-02-18T04:14:52.821Z,99079.36
2019-02-18T04:15:54.520Z,99085.72
2019-02-18T04:16:56.010Z,99085.72
2019-02-18T04:17:57.835Z,99083.75
2019-02-18T04:18:59.418Z,99083.75
2019-02-18T04:20:00.953Z,99078.90
2019-02-18T04:21:02.588Z,99079.11
2019-02-18T04:22:05.024Z,99079.11
2019-02-18T04:23:06.549Z,99077.10
2019-02-18T04:24:07.834Z,99077.10
2019-02-18T04:25:09.468Z,99082.96
2019-02-18T04:26:10.932Z,99077.27
2019-02-18T04:27:12.708Z,99083.94
2019-02-18T04:28:14.269Z,99081.28
2019-02-18T04:29:15.741Z,99081.28
2019-02-18T04:30:18.699Z,99083.94
2019-02-18T04:31:19.955Z,99086.61
2019-02-18T04:32:21.622Z,99086.61
2019-02-18T04:33:23.205Z,99081.28
2019-02-18T04:34:24.815Z,99078.61
2019-02-18T04:35:26.428Z,99078.29
2019-02-18T04:36:28.106Z,99083.94
2019-02-18T04:37:29.480Z,99085.28
2019-02-18T04:38:30.917Z,99079.95
2019-02-18T04:39:32.395Z,99083.62
2019-02-18T04:40:33.862Z,99083.62
2019-02-18T04:41:35.394Z,99083.94
2019-02-18T04:42:36.783Z,99078.61
2019-02-18T04:43:38.877Z,99077.27
2019-02-18T04:44:40.439Z,99072.78
2019-02-18T04:45:42.100Z,99070.61
2019-02-18T04:46:43.668Z,99070.11
2019-02-18T04:47:45.478Z,99067.94
2019-02-18T04:48:46.963Z,99069.63
2019-02-18T04:49:48.397Z,99069.63
2019-02-18T04:50:51.449Z,99066.43
2019-02-18T04:51:53.107Z,99068.61
2019-02-18T04:52:54.780Z,99064.28
2019-02-18T04:53:56.529Z,99064.28
2019-02-18T04:54:57.999Z,99062.95
2019-02-18T04:55:59.744Z,99063.77
2019-02-18T04:57:01.673Z,99063.77
2019-02-18T04:58:06.082Z,99059.77
2019-02-18T04:59:06.518Z,99059.77
2019-02-18T05:00:09.291Z,99068.29
2019-02-18T05:01:11.000Z,99063.94
2019-02-18T05:02:12.616Z,99064.45
2019-02-18T05:03:13.920Z,99062.60
2019-02-18T05:04:15.819Z,99065.80
2019-02-18T05:05:17.206Z,99070.95
2019-02-18T05:06:19.041Z,99073.27
2019-02-18T05:07:20.868Z,99073.63
2019-02-18T05:08:22.353Z,99073.63
2019-02-18T05:09:27.195Z,99069.63
2019-02-18T05:10:28.570Z,99071.28
2019-02-18T05:11:30.180Z,99064.61
2019-02-18T05:12:31.830Z,99067.91
2019-02-18T05:13:33.316Z,99066.89
2019-02-18T05:14:34.992Z,99065.06
2019-02-18T05:15:36.446Z,99065.06
2019-02-18T05:16:37.850Z,99067.21
2019-02-18T05:17:39.841Z,99066.23
2019-02-18T05:18:41.095Z,99066.89
2019-02-18T05:19:42.509Z,99066.89
2019-02-18T05:20:44.116Z,99063.59
2019-02-18T05:21:45.942Z,99069.94
2019-02-18T05:22:47.775Z,99069.94
2019-02-18T05:23:49.182Z,99069.09
2019-02-18T05:24:50.609Z,99074.95
2019-02-18T05:25:52.163Z,99074.95
2019-02-18T05:26:53.757Z,99069.27
2019-02-18T05:27:55.257Z,99074.95
2019-02-18T05:28:56.797Z,99078.96
2019-02-18T05:29:58.474Z,99078.96
2019-02-18T05:30:59.845Z,99077.95
2019-02-18T05:32:01.501Z,99083.11
2019-02-18T05:33:02.957Z,99085.25
2019-02-18T05:34:05.623Z,99085.25
2019-02-18T05:35:07.227Z,99083.92
2019-02-18T05:36:08.780Z,99081.77
2019-02-18T05:37:10.353Z,99085.25
2019-02-18T05:38:11.831Z,99085.57
2019-02-18T05:39:18.109Z,99082.09
2019-02-18T05:40:16.595Z,99079.77
2019-02-18T05:41:18.285Z,99081.77
2019-02-18T05:42:19.997Z,99081.25
2019-02-18T05:43:21.459Z,99081.25
2019-02-18T05:44:23.103Z,99081.77
2019-02-18T05:45:26.181Z,99080.76
2019-02-18T05:46:28.181Z,99080.76
2019-02-18T05:47:29.646Z,99082.41
2019-02-18T05:48:33.933Z,99082.91
2019-02-18T05:49:37.797Z,99084.23
2019-02-18T05:50:39.242Z,99083.42
2019-02-18T05:51:40.656Z,99082.91
2019-02-18T05:52:42.247Z,99082.91
2019-02-18T05:53:43.598Z,99087.22
2019-02-18T05:54:45.124Z,99089.57
2019-02-18T05:55:47.552Z,99092.23
2019-02-18T05:56:49.020Z,99094.24
2019-02-18T05:57:50.396Z,99099.23
2019-02-18T05:58:52.017Z,99096.24
2019-02-18T05:59:53.580Z,99101.09
2019-02-18T06:00:54.978Z,99102.91
2019-02-18T06:01:56.394Z,99106.91
2019-02-18T06:02:58.242Z,99106.42
2019-02-18T06:04:00.238Z,99106.42
2019-02-18T06:05:02.020Z,99111.59
2019-02-18T06:06:03.550Z,99110.74
2019-02-18T06:07:05.396Z,99110.74
2019-02-18T06:08:07.140Z,99110.74
2019-02-18T06:09:08.888Z,99106.11
2019-02-18T06:10:10.204Z,99109.78
2019-02-18T06:11:11.599Z,99113.27
2019-02-18T06:12:13.338Z,99108.09
2019-02-18T06:13:14.750Z,99107.29
2019-02-18T06:14:16.162Z,99111.30
2019-02-18T06:15:17.992Z,99107.95
2019-02-18T06:16:21.801Z,99107.95
2019-02-18T06:17:25.297Z,99106.63
2019-02-18T06:18:26.901Z,99107.95
2019-02-18T06:19:28.548Z,99114.63
2019-02-18T06:20:30.667Z,99115.47
2019-02-18T06:21:32.031Z,99110.63
2019-02-18T06:22:33.559Z,99114.63
2019-02-18T06:23:35.244Z,99120.80
2019-02-18T06:24:36.721Z,99120.80
2019-02-18T06:25:38.503Z,99118.45
2019-02-18T06:26:39.939Z,99112.95
2019-02-18T06:27:43.607Z,99110.77
2019-02-18T06:28:45.297Z,99113.27
2019-02-18T06:29:46.945Z,99114.92
2019-02-18T06:30:48.513Z,99112.77
2019-02-18T06:31:49.915Z,99112.77
2019-02-18T06:32:51.291Z,99119.23
2019-02-18T06:33:52.578Z,99113.41
2019-02-18T06:34:56.346Z,99116.92
2019-02-18T06:35:58.221Z,99118.58
2019-02-18T06:36:59.509Z,99118.58
2019-02-18T06:38:01.990Z,99115.91
2019-02-18T06:39:04.964Z,99117.23
2019-02-18T06:40:07.704Z,99118.05
2019-02-18T06:41:09.288Z,99121.24
2019-02-18T06:42:11.243Z,99122.58
2019-02-18T06:43:13.242Z,99125.73
2019-02-18T06:44:14.849Z,99123.06
2019-02-18T06:45:33.445Z,99123.06
2019-02-18T06:46:37.045Z,99133.25
2019-02-18T06:47:38.399Z,99132.09
2019-02-18T06:48:42.074Z,99132.09
2019-02-18T06:49:43.354Z,99131.24
2019-02-18T06:50:45.044Z,99131.24
2019-02-18T06:51:46.357Z,99128.08
2019-02-18T06:52:47.829Z,99125.42
2019-02-18T06:53:49.397Z,99125.42
2019-02-18T06:54:50.716Z,99126.27
2019-02-18T06:55:52.259Z,99125.73
2019-02-18T06:57:04.292Z,99126.58
2019-02-18T06:58:19.446Z,99126.05
2019-02-18T06:59:22.815Z,99125.07
2019-02-18T07:00:24.756Z,99127.22
2019-02-18T07:01:28.107Z,99127.74
2019-02-18T07:02:31.468Z,99123.91
2019-02-18T07:03:34.991Z,99118.11
2019-02-18T07:04:44.486Z,99118.11
2019-02-18T07:06:00.258Z,99127.07
2019-02-18T07:07:06.060Z,99127.07
2019-02-18T07:08:18.397Z,99133.73
2019-02-18T07:09:30.676Z,99133.73
2019-02-18T07:10:36.834Z,99128.58
2019-02-18T07:11:43.336Z,99132.58
2019-02-18T07:12:46.152Z,99132.58
2019-02-18T07:13:47.628Z,99130.44
2019-02-18T07:14:49.149Z,99125.59
2019-02-18T07:15:50.682Z,99125.59
2019-02-18T07:16:52.643Z,99132.93
2019-02-18T07:17:54.123Z,99126.75
2019-02-18T07:18:55.545Z,99126.75
2019-02-18T07:19:57.127Z,99131.59
2019-02-18T07:20:58.677Z,99129.73
2019-02-18T07:22:00.211Z,99127.91
2019-02-18T07:23:02.015Z,99124.92
2019-02-18T07:24:03.457Z,99124.72
2019-02-18T07:25:06.990Z,99126.90
2019-02-18T07:26:08.473Z,99115.73
2019-02-18T07:27:10.089Z,99124.55
2019-02-18T07:28:11.837Z,99119.73
2019-02-18T07:29:13.333Z,99116.55
2019-02-18T07:30:14.953Z,99115.53
2019-02-18T07:31:16.479Z,99115.53
2019-02-18T07:32:18.129Z,99115.53
2019-02-18T07:33:21.158Z,99122.55
2019-02-18T07:34:22.417Z,99122.55
2019-02-18T07:35:24.053Z,99123.89
2019-02-18T07:36:25.589Z,99123.89
2019-02-18T07:37:27.060Z,99124.70
2019-02-18T07:38:28.783Z,99129.22
2019-02-18T07:39:30.163Z,99132.04
2019-02-18T07:40:31.439Z,99132.84
2019-02-18T07:41:32.833Z,99125.69
2019-02-18T07:42:34.211Z,99125.69
2019-02-18T07:43:36.240Z,99121.83
2019-02-18T07:44:37.826Z,99121.48
2019-02-18T07:45:39.099Z,99118.64
2019-02-18T07:46:40.819Z,99117.13
2019-02-18T07:47:42.326Z,99117.13
2019-02-18T07:48:43.636Z,99117.45
2019-02-18T07:49:45.180Z,99114.78
2019-02-18T07:50:46.653Z,99116.44
2019-02-18T07:51:48.120Z,99112.43
2019-02-18T07:52:49.732Z,99112.78
2019-02-18T07:53:51.184Z,99110.11
2019-02-18T07:54:52.652Z,99112.25
2019-02-18T07:55:54.222Z,99112.25
2019-02-18T07:56:55.836Z,99113.42
2019-02-18T07:57:57.352Z,99112.89
2019-02-18T07:59:01.000Z,99112.89
2019-02-18T08:00:06.061Z,99115.91
2019-02-18T08:01:07.574Z,99115.25
2019-02-18T08:02:09.178Z,99115.56
2019-02-18T08:03:10.922Z,99107.38
2019-02-18T08:04:12.285Z,99112.58
2019-02-18T08:05:13.649Z,99106.23
2019-02-18T08:06:15.031Z,99111.56
2019-02-18T08:07:16.606Z,99111.56
2019-02-18T08:08:18.666Z,99107.70
2019-02-18T08:09:20.226Z,99111.70
2019-02-18T08:10:21.815Z,99114.91
2019-02-18T08:11:23.355Z,99114.38
2019-02-18T08:12:24.852Z,99114.38
2019-02-18T08:13:26.792Z,99113.88
2019-02-18T08:14:28.613Z,99112.02
2019-02-18T08:15:31.587Z,99117.71
2019-02-18T08:16:32.975Z,99123.86
2019-02-18T08:17:34.505Z,99121.19
2019-02-18T08:18:35.851Z,99113.19
2019-02-18T08:19:37.251Z,99113.19
2019-02-18T08:20:38.579Z,99119.69
2019-02-18T08:21:39.861Z,99112.84
2019-02-18T08:22:43.281Z,99113.16
2019-02-18T08:23:45.021Z,99113.16
2019-02-18T08:24:46.736Z,99116.98
2019-02-18T08:25:49.159Z,99117.30
2019-02-18T08:26:50.750Z,99117.30
2019-02-18T08:27:52.259Z,99118.46
2019-02-18T08:28:53.781Z,99117.13
2019-02-18T08:29:55.174Z,99115.27
2019-02-18T08:30:56.489Z,99123.59
2019-02-18T08:31:58.177Z,99117.77
2019-02-18T08:33:00.696Z,99124.44
2019-02-18T08:34:02.102Z,99118.08
2019-02-18T08:35:04.889Z,99118.08
2019-02-18T08:36:06.577Z,99126.93
2019-02-18T08:37:08.115Z,99120.89
2019-02-18T08:38:09.615Z,99123.56
2019-02-18T08:39:11.234Z,99123.56
2019-02-18T08:40:22.001Z,99121.21
2019-02-18T08:41:16.497Z,99115.06
2019-02-18T08:42:17.877Z,99118.86
2019-02-18T08:43:19.388Z,99116.19
2019-02-18T08:44:21.301Z,99113.34
2019-02-18T08:45:22.630Z,99116.02
2019-02-18T08:46:24.868Z,99118.19
2019-02-18T08:47:26.450Z,99119.52
2019-02-18T08:48:27.881Z,99119.52
2019-02-18T08:49:29.320Z,99118.02
2019-02-18T08:50:30.848Z,99125.01
2019-02-18T08:51:32.325Z,99121.00
2019-02-18T08:52:33.826Z,99121.81
2019-02-18T08:53:35.268Z,99121.81
2019-02-18T08:54:36.674Z,99127.82
2019-02-18T08:55:37.928Z,99119.46
2019-02-18T08:56:39.625Z,99119.46
2019-02-18T08:57:41.189Z,99128.14
2019-02-18T08:58:42.930Z,99125.47
2019-02-18T08:59:44.574Z,99125.47
2019-02-18T09:00:46.009Z,99117.77
2019-02-18T09:01:47.766Z,99116.75
2019-02-18T09:02:49.717Z,99114.09
2019-02-18T09:03:51.263Z,99117.73
2019-02-18T09:04:52.730Z,99117.73
2019-02-18T09:05:54.367Z,99117.73
2019-02-18T09:06:55.976Z,99123.40
2019-02-18T09:07:57.401Z,99124.56
2019-02-18T09:08:58.740Z,99124.56
2019-02-18T09:10:00.594Z,99121.89
2019-02-18T09:11:02.366Z,99120.03
2019-02-18T09:12:05.455Z,99118.69
2019-02-18T09:13:06.945Z,99120.34
2019-02-18T09:14:08.391Z,99119.85
2019-02-18T09:15:10.074Z,99119.85
2019-02-18T09:16:11.830Z,99116.69
2019-02-18T09:17:13.387Z,99113.48
2019-02-18T09:18:15.127Z,99113.31
2019-02-18T09:19:16.729Z,99112.82
2019-02-18T09:20:18.091Z,99110.96
2019-02-18T09:21:21.700Z,99111.48
2019-02-18T09:22:33.818Z,99113.95
2019-02-18T09:23:46.120Z,99113.95
2019-02-18T09:24:52.175Z,99115.11
2019-02-18T09:25:53.971Z,99111.63
2019-02-18T09:26:55.554Z,99103.61
2019-02-18T09:27:57.021Z,99111.94
2019-02-18T09:28:58.507Z,99109.27
2019-02-18T09:30:03.701Z,99109.27
2019-02-18T09:31:05.517Z,99105.27
2019-02-18T09:32:07.211Z,99105.27
2019-02-18T09:33:08.773Z,99107.94
2019-02-18T09:34:10.182Z,99105.90
2019-02-18T09:35:11.853Z,99105.90
2019-02-18T09:36:13.539Z,99108.39
2019-02-18T09:37:15.014Z,99107.06
2019-02-18T09:38:24.468Z,99107.06
2019-02-18T09:39:30.570Z,99106.88
2019-02-18T09:40:23.731Z,99109.55
2019-02-18T09:41:25.277Z,99109.55
2019-02-18T09:42:26.958Z,99109.34
2019-02-18T09:43:28.620Z,99109.34
2019-02-18T09:44:30.214Z,99103.51
2019-02-18T09:45:31.700Z,99103.51
2019-02-18T09:46:34.180Z,99099.00
2019-02-18T09:47:37.760Z,99099.00
2019-02-18T09:48:40.412Z,99104.14
2019-02-18T09:49:41.900Z,99099.64
2019-02-18T09:50:43.256Z,99096.97
2019-02-18T09:51:44.740Z,99102.63
2019-02-18T09:52:46.324Z,99097.59
2019-02-18T09:53:47.763Z,99101.11
2019-02-18T09:54:49.060Z,99101.11
2019-02-18T09:55:50.473Z,99101.11
2019-02-18T09:56:51.957Z,99100.09
2019-02-18T09:57:53.452Z,99100.09
2019-02-18T09:58:54.930Z,99100.41
2019-02-18T09:59:56.398Z,99099.08
2019-02-18T10:00:57.727Z,99102.91
2019-02-18T10:01:59.273Z,99102.91
2019-02-18T10:03:01.019Z,99098.40
2019-02-18T10:04:02.750Z,99100.05
2019-02-18T10:05:05.171Z,99102.20
2019-02-18T10:06:06.960Z,99102.20
2019-02-18T10:07:08.360Z,99086.17
2019-02-18T10:08:09.793Z,99091.86
2019-02-18T10:09:11.504Z,99091.86
2019-02-18T10:10:13.680Z,99088.17
2019-02-18T10:11:15.727Z,99094.32
2019-02-18T10:12:19.245Z,99092.48
2019-02-18T10:13:20.757Z,99091.16
2019-02-18T10:14:24.610Z,99093.13
2019-02-18T10:15:26.163Z,99093.13
2019-02-18T10:16:27.802Z,99088.48
2019-02-18T10:17:29.619Z,99085.63
2019-02-18T10:18:31.370Z,99086.97
2019-02-18T10:19:32.719Z,99082.97
2019-02-18T10:20:34.294Z,99081.10
2019-02-18T10:21:35.834Z,99076.28
2019-02-18T10:22:37.379Z,99080.08
2019-02-18T10:23:39.011Z,99079.93
2019-02-18T10:25:43.766Z,99080.25
2019-02-18T10:26:46.234Z,99081.59
2019-02-18T10:27:47.679Z,99078.91
2019-02-18T10:28:49.138Z,99080.07
2019-02-18T10:29:50.532Z,99080.07
2019-02-18T10:30:52.063Z,99076.59
2019-02-18T10:31:53.748Z,99072.89
2019-02-18T10:32:55.274Z,99072.37
2019-02-18T10:33:56.734Z,99066.53
2019-02-18T10:34:58.264Z,99068.67
2019-02-18T10:36:00.008Z,99065.19
2019-02-18T10:37:01.644Z,99064.17
2019-02-18T10:38:03.242Z,99059.67
2019-02-18T10:39:05.424Z,99063.15
2019-02-18T10:40:09.477Z,99063.15
2019-02-18T10:41:12.053Z,99058.13
2019-02-18T10:42:13.760Z,99058.47
2019-02-18T10:43:15.290Z,99054.77
2019-02-18T10:44:16.753Z,99058.25
2019-02-18T10:45:18.478Z,99057.27
2019-02-18T10:46:20.205Z,99057.27
2019-02-18T10:47:21.926Z,99061.06
2019-02-18T10:48:23.542Z,99061.06
2019-02-18T10:49:25.098Z,99062.40
2019-02-18T10:50:27.162Z,99062.40
2019-02-18T10:51:28.909Z,99063.06
2019-02-18T10:52:30.444Z,99063.06
2019-02-18T10:53:32.007Z,99058.84
2019-02-18T10:54:33.535Z,99051.66
2019-02-18T10:55:35.121Z,99050.14
2019-02-18T10:56:36.777Z,99049.62
2019-02-18T10:57:39.104Z,99049.62
2019-02-18T10:58:40.673Z,99042.27
2019-02-18T10:59:42.313Z,99042.27
2019-02-18T11:00:44.334Z,99042.89
2019-02-18T11:01:46.077Z,99040.22
2019-02-18T11:02:47.947Z,99039.51
2019-02-18T11:03:50.639Z,99039.51
2019-02-18T11:04:52.205Z,99035.31
2019-02-18T11:05:53.867Z,99036.47
2019-02-18T11:06:55.135Z,99032.77
2019-02-18T11:07:57.096Z,99032.77
2019-02-18T11:08:58.641Z,99025.41
2019-02-18T11:10:00.385Z,99031.08
2019-02-18T11:11:03.289Z,99029.73
2019-02-18T11:12:04.845Z,99029.55
2019-02-18T11:13:06.106Z,99029.03
2019-02-18T11:14:07.799Z,99029.03
2019-02-18T11:15:12.689Z,99021.32
2019-02-18T11:16:14.058Z,99021.32
2019-02-18T11:17:15.547Z,99026.48
2019-02-18T11:18:17.026Z,99017.97
2019-02-18T11:19:18.721Z,99020.11
2019-02-18T11:20:20.165Z,99018.28
2019-02-18T11:21:21.623Z,99020.95
2019-02-18T11:22:23.519Z,99023.94
2019-02-18T11:23:25.044Z,99016.41
2019-02-18T11:24:26.511Z,99017.56
2019-02-18T11:25:28.418Z,99018.91
2019-02-18T11:26:29.920Z,99018.91
2019-02-18T11:27:31.376Z,99021.89
2019-02-18T11:28:33.334Z,99020.91
2019-02-18T11:29:35.838Z,99014.22
2019-02-18T11:30:39.214Z,99014.22
2019-02-18T11:31:40.866Z,99010.52
2019-02-18T11:32:42.825Z,99011.86
2019-02-18T11:33:44.328Z,99006.82
2019-02-18T11:34:45.888Z,99016.49
2019-02-18T11:35:47.710Z,99007.45
2019-02-18T11:36:50.374Z,99011.98
2019-02-18T11:37:51.978Z,99008.60
2019-02-18T11:38:53.791Z,99008.42
2019-02-18T11:39:55.315Z,99006.77
2019-02-18T11:40:56.773Z,99006.77
2019-02-18T11:41:58.522Z,99005.88
2019-02-18T11:43:00.717Z,98998.66
2019-02-18T11:44:02.499Z,98998.66
2019-02-18T11:45:07.031Z,98997.66
2019-02-18T11:46:08.499Z,98997.98
2019-02-18T11:47:10.261Z,98997.98
2019-02-18T11:48:11.932Z,98999.62
2019-02-18T11:49:13.298Z,98992.94
2019-02-18T11:50:15.061Z,98993.75
2019-02-18T11:51:16.786Z,98993.75
2019-02-18T11:52:18.416Z,98992.75
2019-02-18T11:53:19.985Z,98993.88
2019-02-18T11:54:21.375Z,98981.66
2019-02-18T11:55:22.905Z,98982.55
2019-02-18T11:56:24.402Z,98984.64
2019-02-18T11:57:26.176Z,98982.50
2019-02-18T11:58:27.785Z,98980.97
2019-02-18T11:59:30.873Z,98978.80
2019-02-18T12:00:32.553Z,98979.64
2019-02-18T12:01:34.319Z,98978.30
2019-02-18T12:02:35.859Z,98973.77
2019-02-18T12:03:37.459Z,98973.27
2019-02-18T12:04:39.842Z,98977.27
2019-02-18T12:05:41.306Z,98977.27
2019-02-18T12:06:44.539Z,98974.08
2019-02-18T12:07:46.071Z,98973.08
2019-02-18T12:08:47.651Z,98973.08
2019-02-18T12:09:48.949Z,98973.08
2019-02-18T12:10:50.415Z,98972.05